Time;durP1;ratioP1;P1;durP2;ratioP2;P2;SDS_P1;SDS_P2;PMS_P1;PMS_P2;Temp;Humidity;BMP_temperature;BMP_pressure;BME280_temperature;BME280_humidity;BME280_pressure;Samples;Min_cycle;Max_cycle;Signal;HPM_P1;HPM_P2
2021/05/11 00:00:36;;;;;;;1.00;0.90;;;;;;;15.98;66.45;98084.75;5110119;28;41758;-76
2021/05/11 00:03:04;;;;;;;0.90;0.90;;;;;;;16.05;66.35;98101.88;5094312;28;42038;-76
2021/05/11 00:05:31;;;;;;;1.77;1.00;;;;;;;16.06;66.54;98092.88;5110511;28;41108;-76
2021/05/11 00:07:59;;;;;;;0.93;0.80;;;;;;;16.03;66.43;98084.31;5111062;28;38939;-76
2021/05/11 00:10:28;;;;;;;0.70;0.70;;;;;;;15.88;66.15;98051.09;5110125;28;41779;-76
2021/05/11 00:12:56;;;;;;;1.13;1.03;;;;;;;16.02;66.76;98071.94;5092483;28;42349;-77
2021/05/11 00:15:24;;;;;;;1.10;1.00;;;;;;;15.98;66.67;98068.72;5093927;28;41515;-76
2021/05/11 00:17:52;;;;;;;0.90;0.90;;;;;;;16.00;66.98;98066.75;5110188;28;39871;-76
2021/05/11 00:20:21;;;;;;;1.00;1.00;;;;;;;15.97;66.80;98066.22;5094084;28;41703;-76
2021/05/11 00:22:48;;;;;;;0.80;0.80;;;;;;;16.00;67.08;98072.09;5109497;27;45386;-76
2021/05/11 00:25:16;;;;;;;1.17;1.10;;;;;;;15.97;67.13;98088.41;5093369;28;41212;-76
2021/05/11 00:27:43;;;;;;;0.90;0.90;;;;;;;15.95;67.25;98093.06;5144527;27;40581;-76
2021/05/11 00:30:11;;;;;;;1.40;1.00;;;;;;;15.95;66.96;98100.25;5093695;28;40904;-76
2021/05/11 00:32:39;;;;;;;0.90;0.90;;;;;;;15.93;67.00;98097.72;5111871;27;42883;-76
2021/05/11 00:35:08;;;;;;;1.37;1.27;;;;;;;15.96;67.20;98101.91;5110159;28;41973;-77
2021/05/11 00:37:36;;;;;;;1.77;1.10;;;;;;;15.85;66.80;98089.59;5109755;28;39830;-76
2021/05/11 00:40:05;;;;;;;1.80;0.97;;;;;;;15.96;67.04;98084.06;5110536;28;40819;-76
2021/05/11 00:42:32;;;;;;;1.30;1.13;;;;;;;15.98;67.07;98067.88;5109682;28;43187;-76
2021/05/11 00:44:59;;;;;;;1.20;1.13;;;;;;;15.94;67.71;98051.34;5111160;28;42278;-76
2021/05/11 00:47:26;;;;;;;1.37;1.10;;;;;;;15.93;68.01;98033.66;5109123;28;39858;-76
2021/05/11 00:49:54;;;;;;;1.40;1.30;;;;;;;15.90;67.98;98065.13;5110630;28;41415;-76
2021/05/11 00:52:23;;;;;;;2.63;1.20;;;;;;;15.82;67.99;98080.03;5110555;27;43691;-76
2021/05/11 00:54:50;;;;;;;1.40;1.30;;;;;;;15.82;68.22;98083.72;5110659;28;42899;-76
2021/05/11 00:57:18;;;;;;;1.43;1.30;;;;;;;15.78;68.48;98061.81;5092869;28;38895;-75
2021/05/11 00:59:45;;;;;;;1.50;1.40;;;;;;;15.78;68.71;98051.13;5109239;28;41289;-75
2021/05/11 01:02:13;;;;;;;1.70;1.60;;;;;;;15.75;68.93;98103.00;5111021;27;43373;-76
2021/05/11 01:04:40;;;;;;;1.40;1.30;;;;;;;15.61;68.72;98076.78;5092635;28;41150;-76
2021/05/11 01:07:07;;;;;;;1.50;1.40;;;;;;;15.70;68.58;98053.72;5108969;28;40585;-76
2021/05/11 01:09:36;;;;;;;2.63;1.40;;;;;;;15.76;68.34;98040.59;5109685;28;41588;-76
2021/05/11 01:12:04;;;;;;;2.40;1.50;;;;;;;15.62;68.94;98008.22;5093306;28;41782;-77
2021/05/11 01:14:31;;;;;;;1.57;1.47;;;;;;;15.63;69.00;98004.56;5092111;28;42682;-77
2021/05/11 01:17:00;;;;;;;2.07;1.73;;;;;;;15.59;70.10;98021.84;5093105;28;40025;-77
2021/05/11 01:19:39;;;;;;;1.57;1.47;;;;;;;15.49;70.38;98007.69;5108617;28;42194;-77
2021/05/11 01:22:22;;;;;;;1.60;1.50;;;;;;;15.43;70.64;97993.97;5109758;27;42685;-77
2021/05/11 01:24:52;;;;;;;1.80;1.70;;;;;;;15.40;70.87;97972.06;5110053;28;42844;-76
2021/05/11 01:27:32;;;;;;;1.80;1.37;;;;;;;15.24;71.23;97963.84;5109184;28;39831;-76
2021/05/11 01:30:11;;;;;;;2.30;1.60;;;;;;;15.19;71.15;97980.31;5093200;28;42043;-76
2021/05/11 01:33:01;;;;;;;1.70;1.40;;;;;;;15.28;71.17;98007.91;5114677;27;42624;-77
2021/05/11 01:44:05;;;;;;;1.30;1.20;;;;;;;15.31;70.80;97995.13;5109545;28;43198;-76
2021/05/11 01:49:24;;;;;;;1.70;1.60;;;;;;;15.29;70.95;97975.78;5089054;28;38868;-77
2021/05/11 01:52:14;;;;;;;1.50;1.40;;;;;;;15.29;71.00;97991.78;5109833;27;41761;-76
2021/05/11 01:54:51;;;;;;;1.70;1.60;;;;;;;15.29;70.70;98007.78;5109823;27;42777;-76
2021/05/11 02:22:47;;;;;;;3.93;1.97;;;;;;;15.20;70.96;97949.97;5107987;28;40484;-76
2021/05/11 02:25:15;;;;;;;1.53;1.43;;;;;;;15.20;71.05;97957.16;5108193;28;41563;-76
2021/05/11 02:27:44;;;;;;;2.43;2.27;;;;;;;15.16;71.27;97943.25;5108907;27;42737;-76
2021/05/11 02:30:12;;;;;;;2.40;2.20;;;;;;;15.13;71.26;97943.53;5109846;27;42133;-76
2021/05/11 02:32:42;;;;;;;2.30;2.10;;;;;;;15.17;71.00;97944.09;5108001;28;39741;-76
2021/05/11 02:35:11;;;;;;;3.00;2.80;;;;;;;15.18;71.29;97941.28;5134713;27;41515;-76
2021/05/11 02:37:38;;;;;;;2.30;2.20;;;;;;;15.18;71.01;97938.63;5086972;28;43594;-76
2021/05/11 02:40:08;;;;;;;2.63;2.43;;;;;;;15.18;70.93;97935.94;5089907;28;42371;-76
2021/05/11 02:42:37;;;;;;;3.00;2.70;;;;;;;15.12;71.14;97914.34;5085370;28;40031;-76
2021/05/11 02:45:09;;;;;;;2.30;2.10;;;;;;;15.22;71.38;97933.81;5108372;27;41542;-76
2021/05/11 02:47:47;;;;;;;2.73;2.53;;;;;;;15.22;70.92;97941.81;5107638;28;42922;-76
2021/05/11 02:50:17;;;;;;;3.17;2.70;;;;;;;15.14;70.88;97941.72;5092053;28;41120;-76
2021/05/11 02:52:44;;;;;;;4.20;2.60;;;;;;;15.22;71.21;97950.66;5091064;28;39278;-76
2021/05/11 02:55:13;;;;;;;2.67;2.47;;;;;;;15.24;70.97;97939.84;5092312;28;20226;-76
2021/05/11 02:57:41;;;;;;;2.47;2.27;;;;;;;15.14;70.74;97918.56;5106513;28;42650;-76
2021/05/11 03:00:13;;;;;;;2.00;1.80;;;;;;;15.25;70.71;97944.19;5108556;28;41131;-76
2021/05/11 03:02:40;;;;;;;2.63;2.43;;;;;;;15.24;70.63;97951.34;5106860;28;39984;-77
2021/05/11 03:05:09;;;;;;;2.20;2.00;;;;;;;15.19;70.68;97932.28;5107361;28;41672;-76
2021/05/11 03:07:36;;;;;;;2.53;2.30;;;;;;;15.07;70.61;97925.47;5106698;28;43265;-76
2021/05/11 03:10:05;;;;;;;2.03;1.93;;;;;;;15.04;70.77;97923.94;5108665;28;41107;-76
2021/05/11 03:12:32;;;;;;;2.20;2.00;;;;;;;15.14;70.46;97950.56;5108995;27;39931;-76
2021/05/11 03:14:59;;;;;;;2.53;2.33;;;;;;;15.10;70.84;97943.81;5091422;28;40960;-76
2021/05/11 03:17:28;;;;;;;2.40;2.20;;;;;;;15.07;70.86;97944.97;5106715;28;41836;-76
2021/05/11 03:19:55;;;;;;;2.80;2.60;;;;;;;15.05;71.00;97949.63;5108029;28;42113;-76
2021/05/11 03:22:22;;;;;;;2.10;1.90;;;;;;;15.04;71.08;97955.94;5090409;28;39038;-76
2021/05/11 03:24:49;;;;;;;2.53;2.33;;;;;;;14.93;71.37;97948.13;5108369;28;42348;-76
2021/05/11 03:27:17;;;;;;;3.17;2.87;;;;;;;15.01;71.27;97963.38;5107483;28;43170;-76
2021/05/11 03:29:45;;;;;;;3.30;3.00;;;;;;;15.00;71.93;97962.53;5108680;28;41010;-76
2021/05/11 03:32:12;;;;;;;3.80;3.50;;;;;;;15.01;71.92;97955.38;5107504;28;39030;-76
2021/05/11 03:34:40;;;;;;;3.60;3.30;;;;;;;14.98;72.03;97966.31;5108351;28;42136;-76
2021/05/11 03:37:07;;;;;;;3.10;2.80;;;;;;;14.98;71.82;97967.16;5090401;28;42608;-76
2021/05/11 03:39:37;;;;;;;3.00;2.80;;;;;;;14.99;71.79;97957.34;5107433;28;42145;-76
2021/05/11 03:42:10;;;;;;;4.23;3.43;;;;;;;14.98;72.07;97966.31;5108157;28;39051;-76
2021/05/11 03:44:39;;;;;;;5.80;4.20;;;;;;;14.96;72.17;97979.78;5107211;28;43566;-76
2021/05/11 03:47:06;;;;;;;4.07;3.77;;;;;;;14.94;72.32;97986.28;5108112;27;42430;-76
2021/05/11 03:49:34;;;;;;;3.23;3.03;;;;;;;14.96;72.38;97981.66;5107440;28;42335;-76
2021/05/11 03:52:02;;;;;;;4.30;3.90;;;;;;;14.95;71.84;97974.63;5091174;28;40231;-76
2021/05/11 03:54:29;;;;;;;3.63;3.30;;;;;;;14.96;72.31;97963.78;5108044;27;42568;-76
2021/05/11 03:56:56;;;;;;;4.07;3.50;;;;;;;14.94;72.46;97964.94;5107932;28;42674;-76
2021/05/11 03:59:23;;;;;;;3.53;3.30;;;;;;;14.92;72.06;97964.25;5111129;28;42257;-76
2021/05/11 04:01:51;;;;;;;4.10;3.80;;;;;;;14.90;72.33;97959.06;5110397;28;39462;-76
2021/05/11 04:04:19;;;;;;;4.00;3.60;;;;;;;14.91;72.10;97944.75;5110912;28;41772;-75
2021/05/11 04:06:47;;;;;;;3.50;3.20;;;;;;;14.91;72.30;97938.56;5111221;27;43248;-76
2021/05/11 04:09:20;;;;;;;4.47;4.07;;;;;;;14.89;72.59;97929.88;5110182;28;41084;-76
2021/05/11 04:17:32;;;;;;;4.70;4.30;;;;;;;14.85;72.97;97923.16;5110141;27;42803;-76
2021/05/11 04:19:59;;;;;;;5.17;4.73;;;;;;;14.82;72.91;97928.78;5093397;28;41302;-76
2021/05/11 04:22:27;;;;;;;5.47;4.97;;;;;;;14.83;73.23;97925.13;5108967;28;39833;-76
2021/05/11 04:24:56;;;;;;;4.53;4.17;;;;;;;14.85;73.13;97912.47;5127736;27;41341;-76
2021/05/11 04:27:23;;;;;;;4.33;4.00;;;;;;;14.89;72.80;97903.22;5110305;28;42634;-76
2021/05/11 04:29:53;;;;;;;4.00;3.70;;;;;;;14.88;72.54;97922.88;5112349;27;41878;-76
2021/05/11 04:32:20;;;;;;;3.77;3.47;;;;;;;14.97;72.51;97937.97;5109101;28;40028;-76
2021/05/11 04:34:48;;;;;;;4.77;4.37;;;;;;;15.04;72.50;97934.59;5110389;27;42047;-76
2021/05/11 04:37:15;;;;;;;5.47;4.70;;;;;;;15.08;72.03;97929.81;5111060;27;43311;-76
2021/05/11 04:39:42;;;;;;;5.00;4.60;;;;;;;15.14;72.51;97926.56;5089698;28;41654;-76
2021/05/11 04:42:10;;;;;;;4.40;4.00;;;;;;;15.16;72.19;97924.59;5091514;28;38921;-76
2021/05/11 04:44:39;;;;;;;4.90;4.20;;;;;;;15.26;71.96;97928.03;5107324;28;41688;-76
2021/05/11 04:47:10;;;;;;;4.97;4.57;;;;;;;15.33;71.82;97945.13;5110217;28;41845;-76
2021/05/11 04:49:37;;;;;;;5.37;4.60;;;;;;;15.36;71.39;97950.16;5109634;28;42031;-76
2021/05/11 04:52:05;;;;;;;5.60;5.00;;;;;;;15.32;71.39;97938.13;5110037;28;39994;-77
2021/05/11 04:54:32;;;;;;;6.60;6.00;;;;;;;15.42;71.44;97938.06;5109433;28;41624;-76
2021/05/11 04:56:59;;;;;;;5.40;5.00;;;;;;;15.53;71.30;97947.72;5110242;28;42042;-76
2021/05/11 04:59:27;;;;;;;5.83;5.33;;;;;;;15.61;71.23;97943.31;5092601;28;42096;-76
2021/05/11 05:01:56;;;;;;;5.17;4.77;;;;;;;15.70;70.63;97930.94;5109797;28;40607;-75
2021/05/11 05:04:24;;;;;;;5.67;5.23;;;;;;;15.69;70.44;97918.56;5110456;27;41723;-76
2021/05/11 05:06:51;;;;;;;4.03;3.73;;;;;;;15.79;70.42;97927.34;5109019;28;43447;-76
2021/05/11 05:09:18;;;;;;;4.20;3.90;;;;;;;15.87;70.54;97926.59;5088603;28;41596;-77
2021/05/11 05:11:45;;;;;;;3.43;3.13;;;;;;;15.98;70.16;97924.53;5105237;28;39609;-76
2021/05/11 05:14:12;;;;;;;3.40;3.10;;;;;;;16.07;69.74;97914.78;5090031;28;41963;-76
2021/05/11 05:16:40;;;;;;;4.87;4.40;;;;;;;16.17;69.87;97924.38;5090329;28;43483;-76
2021/05/11 05:19:07;;;;;;;5.10;4.60;;;;;;;16.22;69.50;97929.25;5070998;28;42226;-75
2021/05/11 05:21:35;;;;;;;4.47;4.07;;;;;;;16.27;69.10;97926.13;5109611;28;40284;-76
2021/05/11 05:24:08;;;;;;;3.70;3.40;;;;;;;16.42;69.19;97941.47;5108322;28;41588;-76
2021/05/11 05:26:35;;;;;;;4.50;4.10;;;;;;;16.54;69.08;97923.34;5091518;28;41745;-76
2021/05/11 05:29:03;;;;;;;4.03;3.73;;;;;;;16.61;68.46;97916.38;5105014;28;42863;-77
2021/05/11 05:31:30;;;;;;;4.60;4.20;;;;;;;16.76;68.53;97952.25;5110223;27;40532;-76
2021/05/11 05:33:58;;;;;;;4.60;4.20;;;;;;;16.84;68.23;97956.81;5108376;28;40545;-76
2021/05/11 05:36:25;;;;;;;4.07;3.73;;;;;;;16.89;67.82;97959.88;5109279;27;42944;-77
2021/05/11 05:38:53;;;;;;;4.33;3.93;;;;;;;16.84;67.90;97960.34;5110212;27;42338;-76
2021/05/11 05:41:22;;;;;;;4.13;3.83;;;;;;;17.02;67.37;97962.13;5123308;27;40781;-77
2021/05/11 05:43:50;;;;;;;4.17;3.77;;;;;;;17.13;66.73;97970.72;5090907;28;42471;-76
2021/05/11 05:46:18;;;;;;;4.80;4.40;;;;;;;17.28;66.58;97962.94;5100045;28;43441;-77
2021/05/11 05:48:46;;;;;;;5.23;4.03;;;;;;;17.50;65.93;97959.69;5109245;27;42071;-77
2021/05/11 05:51:15;;;;;;;3.50;3.20;;;;;;;17.53;65.32;97923.75;5130806;27;39644;-77
2021/05/11 05:53:44;;;;;;;3.47;3.17;;;;;;;17.88;65.08;97961.03;5088864;28;41714;-77
2021/05/11 05:56:13;;;;;;;3.27;3.07;;;;;;;18.02;64.99;97959.56;5093231;28;42580;-76
2021/05/11 05:58:40;;;;;;;2.87;2.67;;;;;;;18.10;64.72;97943.47;5089509;28;41199;-76
2021/05/11 06:01:08;;;;;;;3.20;2.90;;;;;;;18.16;64.81;97944.69;5140991;27;40603;-76
2021/05/11 06:03:38;;;;;;;3.03;2.73;;;;;;;18.18;64.76;97972.97;5105105;28;42447;-76
2021/05/11 06:06:07;;;;;;;2.60;2.40;;;;;;;18.23;64.38;97985.88;5107039;28;42627;-75
2021/05/11 06:08:37;;;;;;;3.43;2.70;;;;;;;18.22;63.93;97957.41;5106572;28;42574;-76
2021/05/11 06:11:12;;;;;;;3.47;3.17;;;;;;;18.34;63.83;97950.72;5108025;28;40546;-76
2021/05/11 06:13:42;;;;;;;4.97;3.30;;;;;;;18.48;63.38;97941.16;5108001;28;41716;-76
2021/05/11 06:18:55;;;;;;;2.80;2.60;;;;;;;18.74;62.78;97941.84;5107429;28;42918;-76
2021/05/11 06:21:22;;;;;;;2.30;2.10;;;;;;;18.82;62.56;97941.81;5107608;28;39625;-77
2021/05/11 06:23:50;;;;;;;2.30;2.10;;;;;;;18.87;62.79;97931.44;5109875;27;41412;-76
2021/05/11 06:26:17;;;;;;;2.43;2.23;;;;;;;18.93;62.74;97936.09;5107525;28;42298;-76
2021/05/11 06:28:45;;;;;;;3.43;2.23;;;;;;;18.95;62.23;97935.94;5107894;28;41933;-77
2021/05/11 06:31:12;;;;;;;2.80;2.50;;;;;;;18.89;61.70;97940.16;5107342;28;39993;-76
2021/05/11 06:33:39;;;;;;;2.23;2.07;;;;;;;18.85;61.98;97946.88;5108301;28;41612;-77
2021/05/11 06:36:07;;;;;;;2.93;2.50;;;;;;;18.77;61.93;97936.16;5108270;28;41665;-76
2021/05/11 06:38:34;;;;;;;1.97;1.80;;;;;;;18.49;62.35;97891.91;5107433;28;42322;-76
2021/05/11 06:41:02;;;;;;;2.27;2.07;;;;;;;18.66;62.07;97939.19;5108301;28;38874;-77
2021/05/11 06:43:31;;;;;;;2.30;2.10;;;;;;;18.64;62.06;97933.16;5109148;27;41695;-76
2021/05/11 06:46:37;;;;;;;2.13;1.93;;;;;;;18.68;62.10;97921.06;5110043;27;43182;-76
2021/05/11 06:49:25;;;;;;;2.43;2.17;;;;;;;18.77;62.20;97921.91;5108315;28;41198;-76
2021/05/11 06:54:37;;;;;;;2.87;2.67;;;;;;;19.04;61.18;97932.22;5090304;28;42632;-76
2021/05/11 06:57:06;;;;;;;2.20;2.00;;;;;;;19.18;60.98;97944.94;5109923;27;42554;-76
2021/05/11 06:59:33;;;;;;;2.43;2.20;;;;;;;19.25;60.69;97937.03;5109369;27;42466;-77
2021/05/11 07:02:01;;;;;;;1.80;1.70;;;;;;;19.41;59.76;97950.38;5102725;28;39924;-76
2021/05/11 07:04:29;;;;;;;2.00;1.80;;;;;;;19.50;59.92;97944.03;5104504;28;41371;-78
2021/05/11 07:06:57;;;;;;;2.67;2.00;;;;;;;19.59;59.63;97929.56;5104633;27;43369;-76
2021/05/11 07:09:34;;;;;;;1.80;1.70;;;;;;;19.71;59.23;97938.88;5102843;28;42886;-76
2021/05/11 07:14:47;;;;;;;1.50;1.40;;;;;;;19.90;59.31;97923.34;5106073;28;42247;-76
2021/05/11 07:17:14;;;;;;;1.73;1.47;;;;;;;19.97;59.38;97924.31;5108092;27;42411;-76
2021/05/11 07:19:41;;;;;;;2.50;2.30;;;;;;;20.01;58.90;97914.88;5125012;27;42129;-77
2021/05/11 07:22:08;;;;;;;1.90;1.77;;;;;;;20.00;58.87;97891.69;5108866;27;39699;-76
2021/05/11 07:24:35;;;;;;;1.80;1.63;;;;;;;20.04;58.65;97882.25;5091062;28;41617;-76
2021/05/11 07:29:49;;;;;;;2.20;2.00;;;;;;;20.18;58.32;97857.28;5107184;27;42337;-76
2021/05/11 07:32:17;;;;;;;2.20;2.00;;;;;;;20.41;57.71;97887.69;5093537;28;40014;-76
2021/05/11 07:34:47;;;;;;;3.40;1.67;;;;;;;20.61;57.58;97895.28;5111420;28;42465;-76
2021/05/11 07:37:15;;;;;;;1.70;1.60;;;;;;;20.81;57.27;97899.09;5111156;28;43019;-77
2021/05/11 07:39:45;;;;;;;3.57;2.27;;;;;;;20.92;56.03;97904.03;5111029;28;42585;-76
2021/05/11 07:42:13;;;;;;;1.73;1.63;;;;;;;21.05;55.55;97903.38;5111263;28;39709;-77
2021/05/11 07:44:42;;;;;;;2.10;1.90;;;;;;;21.05;55.71;97888.06;5112520;27;42457;-76
2021/05/11 07:47:13;;;;;;;2.10;1.80;;;;;;;21.14;55.13;97913.06;5112398;27;42637;-76
2021/05/11 08:14:40;;;;;;;1.80;1.70;;;;;;;22.48;52.35;97913.44;5111514;27;38716;-76
2021/05/11 08:17:07;;;;;;;1.83;1.40;;;;;;;22.53;52.45;97900.16;5109453;28;42500;-76
2021/05/11 08:27:56;;;;;;;3.00;1.53;;;;;;;22.50;51.66;97888.97;5110447;28;42688;-77
2021/05/11 08:30:24;;;;;;;1.40;1.20;;;;;;;22.66;51.59;97904.00;5093436;28;42768;-77
2021/05/11 08:32:51;;;;;;;1.53;1.43;;;;;;;22.72;50.87;97909.47;5111623;27;42200;-76
2021/05/11 08:35:18;;;;;;;2.03;1.37;;;;;;;22.89;50.60;97918.13;5111698;27;39805;-77
2021/05/11 08:37:46;;;;;;;2.43;1.60;;;;;;;23.02;51.12;97910.13;5111629;27;41700;-77
2021/05/11 08:40:15;;;;;;;1.77;1.50;;;;;;;23.20;50.24;97918.56;5110997;28;43444;-76
2021/05/11 08:42:43;;;;;;;1.40;1.30;;;;;;;23.37;50.18;97913.66;5109609;28;42294;-76
2021/05/11 08:45:12;;;;;;;3.70;1.47;;;;;;;23.55;49.47;97911.28;5111024;28;40211;-76
2021/05/11 08:47:49;;;;;;;1.60;1.50;;;;;;;23.76;48.60;97918.44;5109779;28;41496;-77
2021/05/11 08:50:18;;;;;;;2.37;1.60;;;;;;;24.00;48.45;97926.00;5110557;28;42704;-76
2021/05/11 08:53:00;;;;;;;1.60;1.40;;;;;;;24.46;47.30;97930.72;5089833;28;42327;-77
2021/05/11 08:59:54;;;;;;;1.20;1.13;;;;;;;24.77;47.17;97927.41;5112145;27;39758;-77
2021/05/11 09:04:43;;;;;;;1.57;1.30;;;;;;;25.70;45.41;97960.69;5090188;28;41845;-77
2021/05/11 09:07:49;;;;;;;1.40;1.30;;;;;;;25.75;44.64;97974.41;5090719;28;39818;-76
2021/05/11 09:27:02;;;;;;;1.83;1.53;;;;;;;27.22;41.75;97929.84;5109522;28;42218;-76
2021/05/11 09:29:37;;;;;;;1.43;1.33;;;;;;;27.33;41.32;97923.66;5109713;28;39015;-78
2021/05/11 09:32:27;;;;;;;1.97;1.40;;;;;;;27.27;41.40;97909.09;5093117;28;40340;-77
2021/05/11 09:44:50;;;;;;;2.10;1.23;;;;;;;27.17;41.63;97897.91;5109890;28;42619;-76
2021/05/11 10:40:10;;;;;;;2.20;1.70;;;;;;;28.37;38.41;97925.34;5109838;27;40021;-77
2021/05/11 10:48:43;;;;;;;2.07;1.40;;;;;;;28.89;38.18;97946.34;5108735;27;42838;-78
2021/05/11 10:51:19;;;;;;;2.93;1.53;;;;;;;28.94;38.35;97960.09;5108642;28;40600;-78
2021/05/11 10:53:57;;;;;;;1.20;1.10;;;;;;;28.78;38.04;97958.06;5090787;28;41704;-78
2021/05/11 10:57:01;;;;;;;2.03;1.30;;;;;;;28.56;38.79;97956.91;5109618;27;42863;-78
2021/05/11 11:05:41;;;;;;;1.37;1.27;;;;;;;27.69;39.96;97933.75;5108085;28;42462;-78
2021/05/11 11:08:32;;;;;;;1.30;1.20;;;;;;;27.38;40.42;97931.97;5104443;28;42626;-78
2021/05/11 11:11:14;;;;;;;1.73;1.57;;;;;;;27.10;40.99;97919.69;5108005;28;41856;-78
2021/05/11 11:13:44;;;;;;;1.40;1.30;;;;;;;26.91;41.06;97919.88;5091029;28;40027;-78
2021/05/11 11:16:12;;;;;;;2.20;1.57;;;;;;;26.60;41.75;97907.97;5108944;27;42380;-77
2021/05/11 11:18:40;;;;;;;1.33;1.23;;;;;;;26.38;42.19;97902.09;5107646;28;43330;-78
2021/05/11 11:21:33;;;;;;;1.40;1.30;;;;;;;26.23;42.55;97911.56;5108328;27;42911;-78
2021/05/11 11:23:59;;;;;;;1.27;1.10;;;;;;;25.99;43.54;97907.72;5108684;27;39692;-78
2021/05/11 11:26:29;;;;;;;1.53;1.43;;;;;;;25.69;43.10;97902.06;5107427;28;42469;-77
2021/05/11 11:29:00;;;;;;;1.87;1.70;;;;;;;25.52;44.15;97893.53;5090959;28;42307;-77
2021/05/11 11:31:29;;;;;;;1.40;1.30;;;;;;;25.23;44.00;97867.75;5108215;27;42055;-77
2021/05/11 11:34:14;;;;;;;1.30;1.20;;;;;;;25.12;45.27;97870.28;5108112;28;38973;-77
2021/05/11 11:36:45;;;;;;;4.33;1.70;;;;;;;24.97;44.85;97867.84;5106927;28;41804;-78
2021/05/11 11:39:18;;;;;;;1.70;1.47;;;;;;;24.91;45.54;97857.81;5107671;28;43567;-78
2021/05/11 11:41:47;;;;;;;1.30;1.20;;;;;;;24.91;46.10;97857.81;5108659;28;42430;-78
2021/05/11 11:44:17;;;;;;;1.63;1.50;;;;;;;24.97;45.12;97875.97;5107794;28;40420;-77
2021/05/11 11:46:45;;;;;;;1.77;1.37;;;;;;;24.91;45.96;97895.72;5107832;28;41397;-78
2021/05/11 11:49:18;;;;;;;2.20;1.43;;;;;;;24.84;46.17;97917.41;5107097;28;43118;-77
2021/05/11 11:51:59;;;;;;;3.03;1.40;;;;;;;24.58;46.45;97906.59;5091035;28;42377;-78
2021/05/11 11:54:33;;;;;;;1.53;1.23;;;;;;;24.51;46.24;97917.41;5107606;27;39603;-78
2021/05/11 12:00:00;;;;;;;2.03;1.37;;;;;;;24.22;47.27;97901.53;5108062;27;43564;-78
2021/05/11 12:02:27;;;;;;;3.07;1.80;;;;;;;24.10;47.70;97895.88;5107835;27;42227;-78
2021/05/11 12:04:55;;;;;;;2.93;1.67;;;;;;;24.03;47.49;97881.50;5112698;27;39819;-76
2021/05/11 12:07:24;;;;;;;2.20;1.60;;;;;;;23.97;47.93;97861.53;5127195;27;41776;-77
2021/05/11 12:09:53;;;;;;;2.30;1.50;;;;;;;23.85;48.03;97851.50;5127420;27;43365;-78
2021/05/11 12:12:22;;;;;;;2.97;1.87;;;;;;;23.82;49.07;97874.38;5128548;27;41910;-78
2021/05/11 12:14:49;;;;;;;1.70;1.60;;;;;;;23.68;49.91;97871.84;5111006;27;40563;-78
2021/05/11 12:17:17;;;;;;;2.27;1.80;;;;;;;23.49;50.29;97862.59;5107590;27;40508;-77
2021/05/11 12:19:45;;;;;;;3.17;1.60;;;;;;;23.53;50.25;97874.69;5111045;28;43458;-77
2021/05/11 12:22:15;;;;;;;1.63;1.53;;;;;;;23.56;49.99;97868.88;5093005;28;40994;-77
2021/05/11 12:24:44;;;;;;;1.97;1.40;;;;;;;23.58;50.34;97864.94;5109818;28;39692;-77
2021/05/11 12:27:13;;;;;;;1.67;1.47;;;;;;;23.64;50.36;97880.34;5093275;28;40704;-77
2021/05/11 12:29:59;;;;;;;1.60;1.50;;;;;;;23.65;50.40;97878.47;5109906;28;42580;-78
2021/05/11 12:32:28;;;;;;;1.70;1.60;;;;;;;23.62;50.25;97885.09;5109820;28;45364;-76
2021/05/11 12:35:07;;;;;;;2.13;1.90;;;;;;;23.55;50.19;97910.47;5110043;28;40042;-78
2021/05/11 12:37:46;;;;;;;3.53;1.70;;;;;;;23.50;50.37;97918.28;5110376;28;41823;-77
2021/05/11 12:40:24;;;;;;;1.77;1.50;;;;;;;23.43;50.54;97917.44;5110669;28;43471;-77
2021/05/11 12:42:51;;;;;;;4.17;1.93;;;;;;;23.25;50.18;97915.25;5110485;28;41018;-77
2021/05/11 12:45:19;;;;;;;1.60;1.50;;;;;;;23.06;50.87;97910.56;5110992;28;38968;-79
2021/05/11 12:47:48;;;;;;;2.27;1.93;;;;;;;23.03;52.04;97909.09;5093667;28;40847;-77
2021/05/11 12:50:20;;;;;;;2.07;1.63;;;;;;;22.87;52.82;97904.81;5093966;28;42764;-78
2021/05/11 12:52:48;;;;;;;2.23;2.03;;;;;;;22.68;53.49;97900.09;5092500;28;42502;-78
2021/05/11 12:55:41;;;;;;;1.67;1.57;;;;;;;22.39;55.06;97898.38;5109583;28;39482;-78
2021/05/11 12:58:23;;;;;;;2.10;1.90;;;;;;;22.20;56.15;97904.44;5110303;28;41661;-77
2021/05/11 13:01:00;;;;;;;2.00;1.80;;;;;;;21.95;56.71;97900.41;5089492;28;42475;-77
2021/05/11 13:03:42;;;;;;;2.17;1.90;;;;;;;21.79;57.46;97906.84;5088313;28;42007;-77
2021/05/11 13:09:35;;;;;;;2.00;1.90;;;;;;;21.39;59.12;97922.53;5109507;28;42297;-76
2021/05/11 13:25:04;;;;;;;3.10;2.10;;;;;;;20.89;62.83;97942.09;5109986;27;42576;-75
2021/05/11 13:26:08;;;;;;;2.77;2.57;;;;;;;20.87;62.64;97946.81;5092083;28;42145;-75
2021/05/11 13:28:42;;;;;;;2.57;2.37;;;;;;;20.85;63.45;97940.78;5110614;27;40605;-75
2021/05/11 13:31:20;;;;;;;3.13;2.83;;;;;;;20.96;63.42;97932.25;5109147;28;42284;-75
2021/05/11 13:33:54;;;;;;;2.63;2.43;;;;;;;21.05;63.78;97931.13;5109246;28;42722;-75
2021/05/11 13:36:21;;;;;;;2.73;2.53;;;;;;;21.14;64.05;97935.41;5110035;27;42219;-75
2021/05/11 13:38:48;;;;;;;3.03;2.30;;;;;;;21.19;64.10;97942.13;5092176;28;38923;-75
2021/05/11 13:41:16;;;;;;;3.23;2.17;;;;;;;21.27;64.13;97934.78;5109421;28;41468;-75
2021/05/11 13:43:43;;;;;;;2.73;2.10;;;;;;;21.35;63.98;97936.56;5110199;27;43449;-75
2021/05/11 13:46:10;;;;;;;2.93;1.90;;;;;;;21.30;64.08;97928.19;5110136;27;42481;-75
2021/05/11 13:48:39;;;;;;;2.17;1.87;;;;;;;21.32;63.67;97927.00;5108319;28;40013;-75
2021/05/11 13:51:13;;;;;;;1.83;1.73;;;;;;;21.27;63.42;97931.25;5126386;27;41081;-76
2021/05/11 13:53:42;;;;;;;2.03;1.80;;;;;;;21.15;63.65;97925.47;5091326;28;41670;-75
2021/05/11 13:56:46;;;;;;;2.43;2.17;;;;;;;21.04;64.13;97917.84;5108958;28;41596;-76
2021/05/11 14:02:31;;;;;;;2.40;2.20;;;;;;;20.98;64.24;97922.13;5110450;27;41750;-75
2021/05/11 14:04:58;;;;;;;2.30;2.13;;;;;;;20.90;63.62;97930.28;5108688;28;41600;-75
2021/05/11 14:07:26;;;;;;;3.60;2.57;;;;;;;20.81;63.93;97917.94;5107733;28;42116;-76
2021/05/11 14:09:54;;;;;;;3.20;3.00;;;;;;;20.78;64.37;97924.50;5109847;27;39807;-75
2021/05/11 14:12:21;;;;;;;2.47;2.27;;;;;;;20.76;63.62;97917.66;5107734;28;42075;-76
2021/05/11 14:14:48;;;;;;;2.70;2.30;;;;;;;20.78;64.02;97929.88;5109038;27;43495;-75
2021/05/11 14:17:15;;;;;;;2.47;2.27;;;;;;;20.73;64.32;97936.84;5109743;27;42611;-76
2021/05/11 14:19:43;;;;;;;3.17;2.73;;;;;;;20.68;63.96;97939.25;5109226;27;39951;-75
2021/05/11 14:22:10;;;;;;;2.70;2.50;;;;;;;20.60;63.31;97936.63;5109468;27;42707;-75
2021/05/11 14:24:38;;;;;;;2.40;2.03;;;;;;;20.47;63.55;97939.09;5108606;27;43157;-76
2021/05/11 14:27:08;;;;;;;1.93;1.83;;;;;;;20.37;63.82;97940.19;5109524;27;43016;-75
2021/05/11 14:29:35;;;;;;;2.10;2.00;;;;;;;20.37;64.12;97948.25;5092029;28;38823;-75
2021/05/11 14:32:02;;;;;;;2.43;2.23;;;;;;;20.35;64.21;97952.09;5135604;27;41651;-75
2021/05/11 14:34:29;;;;;;;2.43;2.33;;;;;;;20.28;64.19;97951.97;5087759;28;41730;-76
2021/05/11 14:36:57;;;;;;;3.57;2.47;;;;;;;20.17;64.29;97957.75;5087909;28;41006;-76
2021/05/11 14:39:24;;;;;;;2.67;2.47;;;;;;;20.09;64.22;97955.97;5089078;28;39997;-75
2021/05/11 14:41:54;;;;;;;2.30;2.13;;;;;;;19.96;64.78;97936.06;5088657;28;41666;-76
2021/05/11 14:44:22;;;;;;;2.63;2.40;;;;;;;20.01;64.99;97960.56;5070663;28;41644;-75
2021/05/11 14:46:50;;;;;;;2.63;2.33;;;;;;;19.91;65.14;97958.09;5088445;28;41030;-75
2021/05/11 14:49:18;;;;;;;2.07;1.97;;;;;;;19.82;65.36;97969.88;5095280;28;40566;-75
2021/05/11 14:51:45;;;;;;;2.23;1.97;;;;;;;19.75;65.99;97954.66;5109429;27;45089;-76
2021/05/11 14:54:12;;;;;;;3.07;2.10;;;;;;;19.60;65.98;97960.78;5107677;28;43422;-74
2021/05/11 14:56:40;;;;;;;2.60;2.40;;;;;;;19.43;66.11;97953.75;5108174;28;41118;-75
2021/05/11 14:59:08;;;;;;;2.80;2.60;;;;;;;19.37;66.87;97954.47;5108939;27;39862;-75
2021/05/11 15:01:35;;;;;;;2.53;2.33;;;;;;;19.32;67.33;97963.00;5109020;27;41272;-75
2021/05/11 15:04:03;;;;;;;2.70;2.50;;;;;;;19.22;67.29;97961.53;5107371;28;42329;-74
2021/05/11 15:06:30;;;;;;;2.33;2.10;;;;;;;19.16;67.47;97962.25;5107887;28;42224;-75
2021/05/11 15:08:57;;;;;;;1.80;1.70;;;;;;;19.11;67.54;97969.97;5107221;28;38826;-74
2021/05/11 15:11:24;;;;;;;2.20;2.03;;;;;;;19.07;67.78;97972.13;5107952;28;41568;-75
2021/05/11 15:13:54;;;;;;;1.73;1.60;;;;;;;19.08;67.87;97981.88;5090651;28;43023;-76